Time;durP1;ratioP1;P1;durP2;ratioP2;P2;SDS_P1;SDS_P2;PMS_P1;PMS_P2;Temp;Humidity;BMP_temperature;BMP_pressure;BME280_temperature;BME280_humidity;BME280_pressure;Samples;Min_cycle;Max_cycle;Signal;HPM_P1;HPM_P2
2022/12/04 09:05:28;;;;;;;;;40.75;39.25;;;;;4.93;100.00;101134.53;4926667;28;49793;-72
2022/12/04 09:07:57;;;;;;;;;43.50;35.75;;;;;4.65;100.00;101060.34;4917262;28;49696;-69
2022/12/04 09:10:23;;;;;;;;;35.50;28.50;;;;;4.67;100.00;101076.00;4933978;28;49874;-83
2022/12/04 09:12:48;;;;;;;;;37.25;33.00;;;;;4.77;100.00;101086.94;4934005;28;50667;-65
2022/12/04 09:15:13;;;;;;;;;43.75;35.75;;;;;5.07;100.00;101141.28;4933941;28;49906;-67
2022/12/04 09:17:39;;;;;;;;;33.50;30.75;;;;;4.94;100.00;101115.50;4933682;28;49768;-62
2022/12/04 09:20:06;;;;;;;;;35.00;26.50;;;;;4.91;100.00;101104.91;4934290;28;49913;-64
2022/12/04 09:22:35;;;;;;;;;39.50;35.50;;;;;4.65;100.00;101068.16;4933918;28;50497;-65
2022/12/04 09:25:00;;;;;;;;;43.25;40.00;;;;;5.14;100.00;101135.56;4934057;28;49731;-63
2022/12/04 09:27:26;;;;;;;;;47.25;36.25;;;;;5.07;100.00;101126.56;4934081;28;50173;-66
2022/12/04 09:29:52;;;;;;;;;40.50;33.25;;;;;5.22;100.00;101133.34;4934224;28;49938;-69
2022/12/04 09:32:17;;;;;;;;;51.00;36.50;;;;;5.13;100.00;101133.78;4933203;28;50614;-64
2022/12/04 09:34:42;;;;;;;;;43.50;38.75;;;;;4.84;100.00;101085.53;4933089;28;58229;-64
2022/12/04 09:37:08;;;;;;;;;35.25;25.50;;;;;4.72;100.00;101072.81;4916192;28;49800;-73
2022/12/04 09:39:33;;;;;;;;;38.50;33.00;;;;;5.25;100.00;101131.78;4916036;28;49831;-65
2022/12/04 09:42:21;;;;;;;;;51.00;40.00;;;;;5.30;100.00;101131.97;4932508;28;71536;-67
2022/12/04 09:44:56;;;;;;;;;47.25;36.75;;;;;5.26;100.00;101115.31;4932960;28;49550;-64
2022/12/04 09:47:42;;;;;;;;;43.75;33.50;;;;;5.16;100.00;101100.97;4933258;28;49811;-65
2022/12/04 09:50:52;;;;;;;;;46.25;39.00;;;;;5.35;100.00;101144.41;4933787;28;49992;-68
2022/12/04 09:53:27;;;;;;;;;42.00;39.75;;;;;5.35;100.00;101122.69;4820881;29;52976;-68
2022/12/04 09:56:04;;;;;;;;;39.25;27.75;;;;;5.52;100.00;101141.72;4835179;29;49915;-68
2022/12/04 09:58:52;;;;;;;;;51.25;44.75;;;;;5.52;100.00;101149.53;4893110;28;49914;-68
2022/12/04 10:01:28;;;;;;;;;48.00;38.50;;;;;5.51;100.00;101130.41;4932954;28;49987;-63
2022/12/04 10:03:55;;;;;;;;;42.00;38.50;;;;;5.56;100.00;101123.69;4932065;28;49703;-62
2022/12/04 10:06:31;;;;;;;;;33.00;30.00;;;;;5.63;100.00;101141.38;4930569;28;49890;-62
2022/12/04 10:09:15;;;;;;;;;36.00;29.50;;;;;5.67;100.00;101124.19;4930161;28;49830;-62
2022/12/04 10:11:51;;;;;;;;;39.50;35.50;;;;;5.68;100.00;101124.25;4936692;28;49826;-62
2022/12/04 10:14:51;;;;;;;;;40.25;34.50;;;;;5.71;100.00;101127.00;4933192;28;50677;-63
2022/12/04 10:17:30;;;;;;;;;39.25;37.50;;;;;5.78;100.00;101127.28;4942022;28;49794;-65
2022/12/04 10:20:15;;;;;;;;;48.75;35.25;;;;;5.60;100.00;101103.91;4945872;28;49585;-64
2022/12/04 10:23:01;;;;;;;;;47.25;40.50;;;;;5.65;100.00;101118.91;4932521;28;49325;-63
2022/12/04 10:25:30;;;;;;;;;46.25;40.75;;;;;5.61;100.00;101113.50;4949575;28;49552;-68
2022/12/04 10:28:21;;;;;;;;;41.25;35.75;;;;;5.71;100.00;101114.00;4933155;28;49768;-61
2022/12/04 10:30:48;;;;;;;;;33.25;31.25;;;;;5.78;100.00;101111.66;4929264;28;49995;-63
2022/12/04 10:33:36;;;;;;;;;59.50;46.50;;;;;5.82;100.00;101114.47;4931895;28;49768;-62
2022/12/04 10:36:03;;;;;;;;;41.00;37.50;;;;;5.68;100.00;101098.19;4932136;28;50661;-62
2022/12/04 10:38:34;;;;;;;;;39.25;35.75;;;;;5.74;100.00;101116.72;4938234;28;49554;-62
2022/12/04 10:41:16;;;;;;;;;46.25;40.50;;;;;5.83;100.00;101104.94;4918448;28;49733;-62
2022/12/04 10:43:44;;;;;;;;;35.25;31.75;;;;;5.77;100.00;101109.88;4928774;28;49779;-63
2022/12/04 10:46:20;;;;;;;;;47.25;38.75;;;;;5.72;100.00;101099.25;4931856;28;50513;-63
2022/12/04 10:48:50;;;;;;;;;51.75;40.00;;;;;5.89;100.00;101110.44;4935858;28;49871;-63
2022/12/04 10:51:20;;;;;;;;;47.50;39.75;;;;;5.91;100.00;101091.47;4945869;28;49829;-63
2022/12/04 10:53:48;;;;;;;;;47.75;42.25;;;;;5.95;100.00;101102.91;4948673;28;49541;-63
2022/12/04 10:56:19;;;;;;;;;41.25;34.75;;;;;6.08;100.00;101105.25;4939552;28;49723;-62
2022/12/04 10:59:03;;;;;;;;;46.00;38.50;;;;;6.10;100.00;101107.94;4937053;28;49605;-62
2022/12/04 11:01:31;;;;;;;;;33.25;26.25;;;;;6.03;100.00;101111.97;4931919;28;49667;-65
2022/12/04 11:04:17;;;;;;;;;44.50;36.50;;;;;6.08;100.00;101109.56;4925123;28;49672;-62
2022/12/04 11:06:43;;;;;;;;;45.00;38.75;;;;;6.10;100.00;101108.81;4914516;28;49769;-62
2022/12/04 11:09:21;;;;;;;;;52.50;42.50;;;;;6.11;100.00;101109.72;4934720;28;49824;-64
2022/12/04 11:11:46;;;;;;;;;42.75;37.25;;;;;6.11;100.00;101104.50;4932219;28;49851;-64
2022/12/04 11:14:21;;;;;;;;;39.25;26.25;;;;;6.09;100.00;101101.84;4932096;28;49725;-63
2022/12/04 11:16:58;;;;;;;;;43.00;39.75;;;;;6.07;100.00;101087.81;4931652;28;49857;-65
2022/12/04 11:19:26;;;;;;;;;47.75;37.50;;;;;6.19;100.00;101098.81;4932387;28;49858;-65
2022/12/04 11:21:54;;;;;;;;;45.25;40.00;;;;;6.13;100.00;101100.25;4932175;28;49886;-65
2022/12/04 11:24:28;;;;;;;;;55.00;41.00;;;;;5.92;100.00;101079.34;4932753;28;50092;-65
2022/12/04 11:26:55;;;;;;;;;43.50;38.50;;;;;6.01;100.00;101114.50;4932022;28;50544;-65
2022/12/04 11:29:29;;;;;;;;;53.75;37.50;;;;;6.03;100.00;101096.34;4928194;28;49850;-68
2022/12/04 11:31:56;;;;;;;;;49.75;39.50;;;;;6.03;100.00;101094.63;4927294;28;50340;-71
2022/12/04 11:34:28;;;;;;;;;47.75;39.50;;;;;6.06;100.00;101087.75;4931948;28;49818;-66
2022/12/04 11:36:55;;;;;;;;;55.75;41.75;;;;;6.05;100.00;101094.69;4930387;28;49840;-66
2022/12/04 11:39:33;;;;;;;;;38.25;36.75;;;;;6.06;100.00;101092.97;4932742;28;49798;-66
2022/12/04 11:42:19;;;;;;;;;43.25;40.25;;;;;6.12;100.00;101094.13;4932379;28;50057;-66
2022/12/04 11:45:19;;;;;;;;;46.50;38.50;;;;;5.97;100.00;101089.13;4919388;28;49859;-64
2022/12/04 11:47:53;;;;;;;;;45.50;40.50;;;;;5.98;100.00;101058.75;4933886;28;49660;-64
2022/12/04 11:50:32;;;;;;;;;50.75;38.25;;;;;6.18;100.00;101090.91;4931409;28;49889;-64
2022/12/04 11:53:09;;;;;;;;;31.75;26.75;;;;;6.19;100.00;101079.66;4932618;28;50064;-64
2022/12/04 11:56:05;;;;;;;;;46.00;35.25;;;;;6.24;100.00;101073.81;4932916;28;49620;-65
2022/12/04 11:58:41;;;;;;;;;50.00;40.00;;;;;6.05;100.00;101039.06;4923931;28;50412;-76
2022/12/04 12:01:19;;;;;;;;;49.50;40.00;;;;;6.46;100.00;101067.78;4913725;28;49792;-73
2022/12/04 12:04:15;;;;;;;;;44.75;38.00;;;;;6.57;100.00;101061.31;4918158;28;49807;-68
2022/12/04 12:07:15;;;;;;;;;46.50;39.00;;;;;6.57;99.83;101066.53;4935246;28;49896;-66
2022/12/04 12:09:53;;;;;;;;;49.00;41.00;;;;;6.46;100.00;101040.81;4934340;28;51006;-68
2022/12/04 12:12:44;;;;;;;;;50.00;40.75;;;;;6.05;99.96;100977.41;4931124;28;49774;-69
2022/12/04 12:20:31;;;;;;;;;54.00;41.00;;;;;6.19;100.00;101018.00;5087998;23;49762;-67
2022/12/04 12:23:21;;;;;;;;;42.25;38.00;;;;;6.43;100.00;101049.41;4953622;28;49758;-67
2022/12/04 12:26:02;;;;;;;;;43.75;39.00;;;;;6.22;100.00;101012.91;4953579;28;49616;-68
2022/12/04 12:28:45;;;;;;;;;46.00;38.00;;;;;6.51;100.00;101060.16;4938445;28;50289;-66
2022/12/04 12:31:13;;;;;;;;;44.25;40.50;;;;;6.46;100.00;101049.53;4935173;28;49631;-65
2022/12/04 12:33:45;;;;;;;;;54.75;41.00;;;;;6.33;100.00;101028.97;4939887;28;49687;-64
2022/12/04 12:36:12;;;;;;;;;47.50;40.25;;;;;6.36;100.00;101056.91;4938380;28;49829;-64
2022/12/04 12:38:57;;;;;;;;;58.75;42.25;;;;;6.27;100.00;101054.78;4939766;28;50097;-64
2022/12/04 12:41:38;;;;;;;;;47.00;39.25;;;;;6.29;100.00;101054.03;4946507;28;50484;-63
2022/12/04 12:44:11;;;;;;;;;42.50;35.00;;;;;6.06;100.00;101031.31;4963376;28;49534;-64
2022/12/04 12:46:48;;;;;;;;;45.50;39.75;;;;;6.18;100.00;101049.22;4971391;28;49359;-63
2022/12/04 12:49:45;;;;;;;;;50.00;41.75;;;;;6.24;100.00;101065.97;4971007;28;49456;-64
2022/12/04 12:52:49;;;;;;;;;45.25;37.00;;;;;6.17;100.00;101063.94;4965397;28;49557;-63
2022/12/04 12:55:21;;;;;;;;;51.25;42.00;;;;;6.18;100.00;101070.94;4952057;28;49545;-64
2022/12/04 12:58:13;;;;;;;;;40.25;38.00;;;;;6.15;100.00;101062.09;4952820;28;49406;-72
2022/12/04 13:00:45;;;;;;;;;44.50;39.25;;;;;5.56;100.00;100970.03;4921626;28;49380;-67
2022/12/04 13:03:55;;;;;;;;;44.00;39.50;;;;;6.01;100.00;101059.78;4951146;28;50206;-69
2022/12/04 13:06:31;;;;;;;;;49.25;41.25;;;;;5.95;100.00;101067.31;4924035;28;49588;-68
2022/12/04 13:09:25;;;;;;;;;39.25;34.75;;;;;5.97;100.00;101068.28;4965693;28;49593;-67
2022/12/04 13:11:57;;;;;;;;;51.00;41.00;;;;;5.97;100.00;101067.38;4957407;28;49568;-68
2022/12/04 13:14:22;;;;;;;;;46.75;40.00;;;;;5.87;100.00;101049.53;4970023;28;50230;-67
2022/12/04 13:16:54;;;;;;;;;52.00;42.00;;;;;5.74;100.00;101035.09;4951952;28;49519;-69
2022/12/04 13:19:28;;;;;;;;;41.50;34.75;;;;;5.82;100.00;101069.28;4950317;28;49708;-68
2022/12/04 13:22:31;;;;;;;;;44.75;37.25;;;;;5.81;100.00;101055.38;4970701;28;49525;-66
2022/12/04 13:24:59;;;;;;;;;54.00;43.00;;;;;5.82;100.00;101051.06;4967966;28;49781;-64
2022/12/04 13:27:55;;;;;;;;;39.00;35.75;;;;;5.86;100.00;101053.84;4960783;28;49438;-76
2022/12/04 13:30:59;;;;;;;;;51.00;41.00;;;;;6.05;100.00;101055.59;4951501;28;49326;-70
2022/12/04 13:33:48;;;;;;;;;56.25;41.75;;;;;6.16;100.00;101049.13;4963979;28;49518;-69
2022/12/04 13:36:19;;;;;;;;;47.00;41.50;;;;;6.14;100.00;101044.66;4921263;28;52443;-67
2022/12/04 13:39:12;;;;;;;;;47.25;41.00;;;;;6.18;100.00;101050.09;4950903;28;49531;-66
2022/12/04 13:41:38;;;;;;;;;40.00;36.00;;;;;6.34;100.00;101054.22;4947147;28;49273;-68
2022/12/04 13:44:21;;;;;;;;;47.00;41.00;;;;;6.37;100.00;101049.16;4963347;28;49168;-65
2022/12/04 13:46:51;;;;;;;;;32.50;32.00;;;;;6.22;100.00;101012.00;4949866;28;50854;-66
2022/12/04 13:49:16;;;;;;;;;57.25;43.25;;;;;6.51;100.00;101052.34;4947981;28;49835;-67
2022/12/04 13:51:44;;;;;;;;;50.00;41.25;;;;;6.28;100.00;101023.59;4948972;28;49407;-67
2022/12/04 13:54:09;;;;;;;;;56.00;43.50;;;;;6.40;100.00;101051.88;4949684;28;49171;-73
2022/12/04 13:56:35;;;;;;;;;50.00;41.75;;;;;6.32;100.00;101050.69;4933476;28;49878;-70
2022/12/04 13:59:04;;;;;;;;;56.50;47.00;;;;;6.39;100.00;101052.72;4934600;28;49722;-68
2022/12/04 14:01:43;;;;;;;;;50.00;43.00;;;;;6.53;100.00;101062.00;4934107;28;50076;-71
2022/12/04 14:04:22;;;;;;;;;50.75;42.00;;;;;6.40;100.00;101035.34;4933176;28;49811;-70
2022/12/04 14:06:50;;;;;;;;;62.00;45.25;;;;;6.45;100.00;101066.00;4933921;28;49723;-71
2022/12/04 14:09:25;;;;;;;;;49.25;40.50;;;;;6.33;100.00;101075.91;4941512;28;50020;-71
2022/12/04 14:11:57;;;;;;;;;43.75;38.25;;;;;6.24;100.00;101045.13;4933648;28;49942;-69
2022/12/04 14:14:27;;;;;;;;;55.00;42.00;;;;;6.26;100.00;101039.97;4933653;28;49741;-69
2022/12/04 14:16:56;;;;;;;;;49.50;43.00;;;;;6.57;100.00;101063.03;4939745;28;50578;-69
2022/12/04 14:19:37;;;;;;;;;47.75;39.75;;;;;6.64;100.00;101078.09;4934223;28;49707;-69
2022/12/04 14:22:03;;;;;;;;;55.00;44.25;;;;;6.57;100.00;101076.09;4936040;28;49738;-69
2022/12/04 14:24:35;;;;;;;;;44.00;41.25;;;;;6.65;100.00;101089.41;4933829;28;50690;-68
2022/12/04 14:27:21;;;;;;;;;56.50;42.50;;;;;6.57;100.00;101087.41;4942101;28;50358;-67
2022/12/04 14:29:53;;;;;;;;;55.25;39.50;;;;;6.47;100.00;101071.31;4933709;28;49784;-68
2022/12/04 14:32:27;;;;;;;;;56.25;42.25;;;;;6.43;100.00;101075.47;4933072;28;49857;-68
2022/12/04 14:34:54;;;;;;;;;48.25;42.00;;;;;6.54;100.00;101088.97;4933537;28;49645;-68
2022/12/04 14:37:26;;;;;;;;;52.50;39.00;;;;;6.47;100.00;101077.41;4932121;28;50604;-69
2022/12/04 14:39:52;;;;;;;;;54.00;44.75;;;;;6.43;100.00;101069.38;4933245;28;49868;-66
2022/12/04 14:42:37;;;;;;;;;50.50;40.75;;;;;6.43;100.00;101085.03;4932898;28;50072;-69
2022/12/04 14:45:06;;;;;;;;;47.25;39.75;;;;;6.46;100.00;101079.94;4946017;28;49783;-66
2022/12/04 14:48:09;;;;;;;;;50.00;38.50;;;;;6.40;100.00;101082.28;4950647;28;50719;-65
2022/12/04 14:50:46;;;;;;;;;63.75;45.50;;;;;6.21;100.00;101058.03;4932534;28;50012;-69
2022/12/04 14:53:32;;;;;;;;;45.75;39.75;;;;;6.26;100.00;101076.47;4956568;28;49437;-69
2022/12/04 14:56:12;;;;;;;;;49.00;39.50;;;;;6.26;100.00;101089.50;4950972;28;50227;-79
2022/12/04 14:58:38;;;;;;;;;48.50;39.25;;;;;6.27;100.00;101096.50;4949200;28;51474;-72
2022/12/04 15:01:18;;;;;;;;;47.50;39.75;;;;;6.09;100.00;101093.13;4949788;28;49848;-74
2022/12/04 15:03:46;;;;;;;;;45.75;40.75;;;;;6.15;100.00;101103.78;4952951;28;49770;-70
2022/12/04 15:06:27;;;;;;;;;49.50;41.25;;;;;6.07;100.00;101100.84;4943879;28;49696;-70
2022/12/04 15:14:46;;;;;;;;;55.50;43.75;;;;;6.05;100.00;101093.78;4948381;28;49953;-75
2022/12/04 15:17:13;;;;;;;;;47.50;37.25;;;;;6.10;100.00;101105.31;4940152;28;49832;-73
2022/12/04 15:19:38;;;;;;;;;51.25;44.50;;;;;6.12;100.00;101103.66;4950169;28;51187;-70
2022/12/04 15:22:11;;;;;;;;;51.00;42.50;;;;;5.98;100.00;101069.16;4951029;28;49785;-69
2022/12/04 15:24:37;;;;;;;;;55.25;43.00;;;;;6.25;100.00;101108.59;4949152;28;49724;-67
2022/12/04 15:27:05;;;;;;;;;51.75;38.00;;;;;6.23;100.00;101112.84;4950843;28;49698;-66
2022/12/04 15:29:34;;;;;;;;;55.50;42.00;;;;;6.27;100.00;101107.84;4950759;28;50509;-66
2022/12/04 15:32:05;;;;;;;;;46.50;39.00;;;;;6.33;100.00;101122.84;4951031;28;49714;-66
2022/12/04 15:34:53;;;;;;;;;58.00;47.00;;;;;6.35;100.00;101125.53;4950655;28;49776;-68
2022/12/04 15:37:22;;;;;;;;;55.75;46.00;;;;;6.39;100.00;101130.06;4957057;28;49624;-67
2022/12/04 15:39:48;;;;;;;;;52.00;43.50;;;;;6.03;100.00;101093.72;4942854;28;49986;-69
2022/12/04 15:42:21;;;;;;;;;52.25;41.75;;;;;6.20;100.00;101146.63;4940530;28;49192;-70
2022/12/04 15:44:52;;;;;;;;;61.50;42.50;;;;;6.20;100.00;101146.63;4948757;28;49617;-65
2022/12/04 15:47:24;;;;;;;;;58.25;43.75;;;;;5.73;100.00;101088.91;4942606;28;49453;-66
2022/12/04 15:49:50;;;;;;;;;52.00;42.50;;;;;6.16;100.00;101155.09;4953868;28;49655;-69
2022/12/04 15:52:21;;;;;;;;;42.25;39.25;;;;;6.15;100.00;101161.13;4946385;28;49326;-64
2022/12/04 15:54:55;;;;;;;;;36.50;26.75;;;;;6.08;100.00;101160.00;4932471;28;49760;-69
2022/12/04 15:57:26;;;;;;;;;46.50;40.00;;;;;5.97;100.00;101163.81;4933672;28;49893;-63
2022/12/04 15:59:53;;;;;;;;;47.50;40.25;;;;;5.79;100.00;101152.50;4932756;28;50919;-68
2022/12/04 16:02:31;;;;;;;;;39.75;38.00;;;;;5.95;100.00;101165.47;4936166;28;49925;-68
2022/12/04 16:04:57;;;;;;;;;48.25;42.75;;;;;6.00;100.00;101164.84;4941399;28;49657;-71
2022/12/04 16:07:28;;;;;;;;;57.75;44.75;;;;;5.81;100.00;101117.00;4943782;28;49328;-77
2022/12/04 16:09:59;;;;;;;;;48.50;41.25;;;;;5.89;100.00;101162.56;4934870;28;50834;-63
2022/12/04 16:12:29;;;;;;;;;63.75;42.50;;;;;5.72;100.00;101117.47;4936518;28;49828;-73
2022/12/04 16:14:55;;;;;;;;;54.50;43.25;;;;;5.86;100.00;101165.88;4933698;28;49940;-66
2022/12/04 16:17:29;;;;;;;;;56.50;43.25;;;;;5.85;100.00;101156.28;4931864;28;50253;-71
2022/12/04 16:19:55;;;;;;;;;65.75;47.25;;;;;5.81;100.00;101132.66;4938391;28;51503;-64
2022/12/04 16:22:25;;;;;;;;;44.25;35.50;;;;;5.70;100.00;101140.88;4949175;28;49474;-65
2022/12/04 16:24:51;;;;;;;;;51.00;41.50;;;;;5.84;100.00;101159.72;4949559;28;49380;-65
2022/12/04 16:27:21;;;;;;;;;38.50;32.00;;;;;5.44;100.00;101102.28;4949294;28;49404;-65
2022/12/04 16:29:46;;;;;;;;;48.50;41.00;;;;;5.81;100.00;101171.72;4945771;28;50073;-70
2022/12/04 16:32:15;;;;;;;;;40.75;29.00;;;;;5.73;100.00;101151.41;4949039;28;49367;-66
2022/12/04 16:34:40;;;;;;;;;54.25;44.00;;;;;5.84;100.00;101170.16;4946724;28;49893;-64
2022/12/04 16:37:14;;;;;;;;;47.75;41.00;;;;;5.80;100.00;101151.72;4945653;28;49718;-65
2022/12/04 16:39:39;;;;;;;;;50.00;42.50;;;;;5.83;100.00;101172.69;4944051;28;49821;-68
2022/12/04 16:42:05;;;;;;;;;57.00;39.75;;;;;5.79;100.00;101175.94;4946849;28;49978;-69
2022/12/04 16:44:30;;;;;;;;;55.25;39.75;;;;;5.66;100.00;101153.66;4946910;28;49492;-71
2022/12/04 16:46:55;;;;;;;;;45.50;40.75;;;;;5.61;100.00;101131.72;4946700;28;49358;-65
2022/12/04 16:49:21;;;;;;;;;59.00;43.25;;;;;5.81;100.00;101169.13;4947690;28;49366;-65
2022/12/04 16:51:49;;;;;;;;;51.00;42.00;;;;;5.32;100.00;101093.91;4946921;28;49607;-65
2022/12/04 16:54:15;;;;;;;;;49.25;36.75;;;;;5.85;100.00;101176.25;4950964;28;49286;-68
2022/12/04 16:56:41;;;;;;;;;62.25;44.25;;;;;5.81;100.00;101182.16;4950719;28;49396;-73
2022/12/04 16:59:06;;;;;;;;;45.25;39.25;;;;;5.81;100.00;101198.66;4952375;28;49447;-72
2022/12/04 17:01:45;;;;;;;;;50.75;42.25;;;;;5.64;100.00;101152.69;4951828;28;49495;-72
2022/12/04 17:04:11;;;;;;;;;46.00;40.00;;;;;5.56;100.00;101134.09;4951264;28;49387;-67
2022/12/04 17:06:36;;;;;;;;;41.00;37.25;;;;;4.52;100.00;101001.63;4947627;28;49980;-70
2022/12/04 17:09:02;;;;;;;;;45.75;37.25;;;;;5.80;100.00;101183.88;4950455;28;50412;-65
2022/12/04 17:11:28;;;;;;;;;36.50;36.00;;;;;5.75;100.00;101181.03;4951743;28;49500;-72
2022/12/04 17:13:53;;;;;;;;;37.00;31.25;;;;;5.36;100.00;101121.88;4950584;28;49514;-67
2022/12/04 17:16:18;;;;;;;;;46.50;37.25;;;;;4.94;100.00;101068.66;4952024;28;49629;-65
2022/12/04 17:18:44;;;;;;;;;49.25;41.75;;;;;5.46;100.00;101147.50;4951089;28;49709;-69
2022/12/04 17:21:13;;;;;;;;;50.00;42.50;;;;;5.43;100.00;101136.97;4952208;28;49629;-65
2022/12/04 17:23:39;;;;;;;;;46.75;36.00;;;;;5.42;100.00;101148.19;4951624;28;49627;-76
2022/12/04 17:26:07;;;;;;;;;51.00;42.00;;;;;5.42;100.00;101167.31;4950090;28;49759;-71
2022/12/04 17:28:33;;;;;;;;;46.00;39.00;;;;;5.71;100.00;101207.75;4949882;28;50086;-65
2022/12/04 17:31:01;;;;;;;;;49.25;39.75;;;;;5.79;100.00;101213.34;4951849;28;49308;-68
2022/12/04 17:33:27;;;;;;;;;55.50;46.25;;;;;5.75;100.00;101198.38;4949958;28;49586;-65
2022/12/04 17:35:53;;;;;;;;;54.25;43.50;;;;;5.51;100.00;101155.56;4932353;28;50389;-67
2022/12/04 17:38:19;;;;;;;;;44.25;36.75;;;;;5.59;100.00;101168.09;4946583;28;49833;-66
2022/12/04 17:40:45;;;;;;;;;54.75;42.75;;;;;5.80;100.00;101201.22;4935154;28;49695;-70
2022/12/04 17:43:10;;;;;;;;;46.25;37.50;;;;;5.46;100.00;101145.81;4940263;28;50473;-70
2022/12/04 17:45:39;;;;;;;;;43.00;37.25;;;;;5.33;100.00;101127.81;4936544;28;49949;-66
2022/12/04 17:48:05;;;;;;;;;54.00;42.00;;;;;5.79;100.00;101217.63;4934612;28;50579;-66
2022/12/04 17:50:30;;;;;;;;;55.50;41.75;;;;;5.84;100.00;101223.97;4936856;28;49684;-65
2022/12/04 17:52:56;;;;;;;;;38.25;34.25;;;;;5.68;100.00;101204.09;4935020;28;49918;-73
2022/12/04 17:55:21;;;;;;;;;52.25;43.00;;;;;5.50;100.00;101171.97;4929742;28;49795;-66
2022/12/04 17:57:47;;;;;;;;;49.75;42.00;;;;;5.83;100.00;101236.09;4931378;28;52095;-66
2022/12/04 18:00:13;;;;;;;;;49.50;39.75;;;;;5.80;100.00;101235.06;4940569;28;49679;-65
2022/12/04 18:02:40;;;;;;;;;47.75;38.50;;;;;5.61;100.00;101197.72;4942422;28;49696;-66
2022/12/04 18:05:06;;;;;;;;;55.00;42.25;;;;;5.64;100.00;101199.59;4953441;28;49811;-66
2022/12/04 18:07:31;;;;;;;;;39.50;32.25;;;;;5.86;100.00;101231.03;4945931;28;51669;-66
2022/12/04 18:09:56;;;;;;;;;43.75;39.25;;;;;5.36;100.00;101153.09;4951448;28;49462;-66
2022/12/04 18:12:21;;;;;;;;;46.25;39.75;;;;;5.55;100.00;101201.75;4950907;28;49575;-66
2022/12/04 18:14:47;;;;;;;;;41.00;38.25;;;;;5.53;100.00;101187.78;4950297;28;56945;-65
2022/12/04 18:17:12;;;;;;;;;55.25;39.25;;;;;5.83;100.00;101245.63;4950082;28;49477;-64
2022/12/04 18:19:38;;;;;;;;;38.25;33.25;;;;;5.64;100.00;101216.09;4950747;28;49782;-65
2022/12/04 18:22:03;;;;;;;;;45.50;36.75;;;;;5.60;100.00;101201.16;4951254;28;49579;-66
2022/12/04 18:24:28;;;;;;;;;51.75;41.25;;;;;5.82;100.00;101246.47;4933693;28;49882;-67
2022/12/04 18:26:54;;;;;;;;;44.50;38.50;;;;;5.76;100.00;101236.63;4933356;28;50651;-67
2022/12/04 18:29:22;;;;;;;;;39.50;34.75;;;;;5.81;100.00;101242.06;4932382;28;49810;-64
2022/12/04 18:31:49;;;;;;;;;49.00;41.50;;;;;5.77;100.00;101242.72;4932564;28;49956;-65
2022/12/04 18:34:15;;;;;;;;;49.00;39.50;;;;;5.78;100.00;101245.41;4951507;28;50089;-64
2022/12/04 18:36:41;;;;;;;;;48.25;42.75;;;;;5.51;100.00;101195.50;4951619;28;50396;-67
2022/12/04 18:39:10;;;;;;;;;42.75;32.00;;;;;5.74;100.00;101246.09;4951855;28;49891;-65
2022/12/04 18:41:35;;;;;;;;;38.00;35.00;;;;;5.68;100.00;101253.59;4951729;28;49684;-64
2022/12/04 18:44:01;;;;;;;;;50.00;42.25;;;;;5.60;100.00;101241.94;4951892;28;49797;-65
2022/12/04 18:46:27;;;;;;;;;46.75;39.50;;;;;5.64;100.00;101254.28;4950219;28;51490;-69
2022/12/04 18:48:54;;;;;;;;;38.00;34.00;;;;;5.69;100.00;101258.91;4950983;28;49849;-65
2022/12/04 18:51:23;;;;;;;;;38.75;33.50;;;;;5.68;100.00;101264.91;4951697;28;50409;-67
2022/12/04 18:53:50;;;;;;;;;54.50;40.25;;;;;5.74;100.00;101275.63;4948292;28;50429;-68
2022/12/04 18:56:16;;;;;;;;;46.50;35.00;;;;;5.67;100.00;101272.66;4951031;28;50143;-66
2022/12/04 18:58:42;;;;;;;;;39.25;32.75;;;;;5.52;100.00;101244.16;4962844;28;49640;-67
2022/12/04 19:01:10;;;;;;;;;32.50;29.50;;;;;5.67;100.00;101268.34;4950985;28;49593;-74
2022/12/04 19:03:36;;;;;;;;;38.50;29.75;;;;;5.56;100.00;101268.63;4944796;28;49323;-70
2022/12/04 19:06:02;;;;;;;;;42.75;37.50;;;;;5.55;100.00;101264.25;4944594;28;50660;-69
2022/12/04 19:08:28;;;;;;;;;46.75;33.75;;;;;5.61;100.00;101282.78;4931072;28;50049;-65
2022/12/04 19:10:53;;;;;;;;;33.25;27.75;;;;;5.39;100.00;101247.84;4931849;28;49815;-64
2022/12/04 19:13:19;;;;;;;;;36.00;35.75;;;;;5.11;100.00;101193.53;4930305;28;49918;-65
2022/12/04 19:15:46;;;;;;;;;34.00;23.25;;;;;5.39;100.00;101241.75;4931149;28;52714;-65
2022/12/04 19:18:12;;;;;;;;;41.25;33.00;;;;;5.66;100.00;101279.56;4930984;28;49763;-65
2022/12/04 19:20:39;;;;;;;;;42.75;34.75;;;;;5.50;100.00;101271.84;4932418;28;50024;-65
2022/12/04 19:23:04;;;;;;;;;37.00;34.00;;;;;5.53;100.00;101276.31;4932628;28;49639;-64
2022/12/04 19:25:30;;;;;;;;;34.75;29.75;;;;;5.48;100.00;101273.47;4943664;28;52104;-64
2022/12/04 19:27:55;;;;;;;;;36.50;36.25;;;;;5.19;100.00;101225.16;4931089;28;50037;-64
2022/12/04 19:30:20;;;;;;;;;41.75;37.25;;;;;5.13;100.00;101222.28;4932347;28;50012;-64
2022/12/04 19:32:47;;;;;;;;;37.50;33.75;;;;;5.04;100.00;101201.00;4931956;28;50056;-65
2022/12/04 19:35:13;;;;;;;;;38.50;34.50;;;;;5.50;100.00;101287.47;4943724;28;51452;-66
2022/12/04 19:37:38;;;;;;;;;42.75;37.00;;;;;5.57;100.00;101294.75;4932377;28;49806;-65
2022/12/04 19:40:04;;;;;;;;;44.50;39.00;;;;;5.59;100.00;101294.81;4932252;28;49797;-65
2022/12/04 19:42:30;;;;;;;;;33.75;31.75;;;;;5.40;100.00;101286.13;4945234;28;49925;-64
2022/12/04 19:44:55;;;;;;;;;36.50;32.75;;;;;5.49;100.00;101313.41;4931915;28;49825;-65
2022/12/04 19:47:20;;;;;;;;;38.75;34.75;;;;;5.50;100.00;101303.09;4931837;28;49823;-66
2022/12/04 19:49:46;;;;;;;;;43.25;36.25;;;;;5.40;100.00;101298.22;4932143;28;49984;-65
2022/12/04 19:52:11;;;;;;;;;31.00;30.00;;;;;5.55;100.00;101313.72;4932399;28;50210;-64
2022/12/04 19:54:37;;;;;;;;;40.00;33.75;;;;;5.15;100.00;101250.16;4931925;28;52092;-65
2022/12/04 19:57:02;;;;;;;;;38.25;34.50;;;;;5.53;100.00;101311.06;4932166;28;49624;-65
2022/12/04 19:59:27;;;;;;;;;42.75;35.75;;;;;4.64;100.00;101159.97;4932055;28;49800;-65
2022/12/04 20:01:53;;;;;;;;;48.75;39.50;;;;;5.22;100.00;101256.56;4932241;28;49956;-65
2022/12/04 20:04:18;;;;;;;;;46.75;39.00;;;;;5.22;100.00;101261.78;4931342;28;50382;-64
2022/12/04 20:06:45;;;;;;;;;46.00;38.50;;;;;5.57;100.00;101320.78;4932060;28;49829;-64
2022/12/04 20:09:13;;;;;;;;;50.75;41.50;;;;;5.61;100.00;101332.28;4932604;28;49989;-64
2022/12/04 20:11:40;;;;;;;;;31.75;24.75;;;;;5.62;100.00;101337.56;4934077;28;50071;-64
2022/12/04 20:14:07;;;;;;;;;40.00;32.25;;;;;5.25;100.00;101259.31;4934012;28;49852;-64
2022/12/04 20:16:33;;;;;;;;;46.25;41.50;;;;;5.46;100.00;101312.44;4931668;28;49892;-64
2022/12/04 20:19:01;;;;;;;;;42.50;35.00;;;;;4.58;100.00;101152.75;4931380;28;49791;-65
2022/12/04 20:21:30;;;;;;;;;42.25;34.25;;;;;5.65;100.00;101342.91;4931842;28;49754;-65
2022/12/04 20:23:58;;;;;;;;;43.75;39.00;;;;;5.49;100.00;101308.22;4931494;28;50845;-65
2022/12/04 20:26:27;;;;;;;;;45.00;39.50;;;;;4.86;100.00;101195.75;4934923;28;50143;-65
2022/12/04 20:28:57;;;;;;;;;48.50;41.75;;;;;5.18;100.00;101263.31;4933847;28;50000;-64
2022/12/04 20:31:28;;;;;;;;;36.75;35.25;;;;;5.15;100.00;101244.94;4935556;28;49691;-65
2022/12/04 20:33:59;;;;;;;;;40.00;34.50;;;;;5.77;100.00;101359.97;4934597;28;49790;-64
2022/12/04 20:36:27;;;;;;;;;51.50;39.00;;;;;5.65;100.00;101355.03;4933647;28;49846;-65
2022/12/04 20:38:56;;;;;;;;;42.00;36.75;;;;;5.83;100.00;101360.28;4934946;28;49776;-65
2022/12/04 20:41:22;;;;;;;;;41.50;37.75;;;;;5.80;100.00;101360.13;4935017;28;49934;-65
2022/12/04 20:43:47;;;;;;;;;41.00;35.00;;;;;5.45;100.00;101301.97;4934749;28;50080;-66
2022/12/04 20:46:14;;;;;;;;;43.25;37.50;;;;;5.73;100.00;101370.25;4934896;28;49929;-65